sensor_id;sensor_type;location;lat;lon;timestamp;P1;durP1;ratioP1;P2;durP2;ratioP2
59756;SDS011;45631;51.962;5.974;2024-01-07T00:00:44;35.30;;;17.88;;
59756;SDS011;45631;51.962;5.974;2024-01-07T00:03:12;42.47;;;22.15;;
59756;SDS011;45631;51.962;5.974;2024-01-07T00:05:40;38.17;;;19.23;;
59756;SDS011;45631;51.962;5.974;2024-01-07T00:08:09;35.00;;;18.63;;
59756;SDS011;45631;51.962;5.974;2024-01-07T00:10:38;40.58;;;19.52;;
59756;SDS011;45631;51.962;5.974;2024-01-07T00:13:06;38.85;;;20.63;;
59756;SDS011;45631;51.962;5.974;2024-01-07T00:15:34;40.35;;;21.08;;
59756;SDS011;45631;51.962;5.974;2024-01-07T00:18:03;42.28;;;20.08;;
59756;SDS011;45631;51.962;5.974;2024-01-07T00:20:31;41.42;;;21.23;;
59756;SDS011;45631;51.962;5.974;2024-01-07T00:22:59;41.53;;;20.67;;
59756;SDS011;45631;51.962;5.974;2024-01-07T00:25:27;44.08;;;20.92;;
59756;SDS011;45631;51.962;5.974;2024-01-07T00:27:57;44.10;;;22.33;;
59756;SDS011;45631;51.962;5.974;2024-01-07T00:30:25;45.10;;;21.10;;
59756;SDS011;45631;51.962;5.974;2024-01-07T00:32:53;43.78;;;21.88;;
59756;SDS011;45631;51.962;5.974;2024-01-07T00:35:22;45.15;;;22.70;;
59756;SDS011;45631;51.962;5.974;2024-01-07T00:37:50;45.72;;;20.88;;
59756;SDS011;45631;51.962;5.974;2024-01-07T00:40:18;40.40;;;20.83;;
59756;SDS011;45631;51.962;5.974;2024-01-07T00:42:49;42.30;;;21.00;;
59756;SDS011;45631;51.962;5.974;2024-01-07T00:45:19;44.45;;;21.83;;
59756;SDS011;45631;51.962;5.974;2024-01-07T00:47:48;48.50;;;23.25;;
59756;SDS011;45631;51.962;5.974;2024-01-07T00:50:19;49.42;;;22.75;;
59756;SDS011;45631;51.962;5.974;2024-01-07T00:52:48;48.97;;;23.10;;
59756;SDS011;45631;51.962;5.974;2024-01-07T00:55:16;48.58;;;22.70;;
59756;SDS011;45631;51.962;5.974;2024-01-07T00:57:44;49.53;;;23.42;;
59756;SDS011;45631;51.962;5.974;2024-01-07T01:00:13;51.10;;;23.08;;
59756;SDS011;45631;51.962;5.974;2024-01-07T01:02:42;43.25;;;22.83;;
59756;SDS011;45631;51.962;5.974;2024-01-07T01:05:10;46.33;;;23.13;;
59756;SDS011;45631;51.962;5.974;2024-01-07T01:07:39;41.90;;;21.88;;
59756;SDS011;45631;51.962;5.974;2024-01-07T01:10:07;40.20;;;21.08;;
59756;SDS011;45631;51.962;5.974;2024-01-07T01:12:36;36.97;;;19.38;;
59756;SDS011;45631;51.962;5.974;2024-01-07T01:15:05;35.00;;;19.52;;
59756;SDS011;45631;51.962;5.974;2024-01-07T01:17:36;36.13;;;19.73;;
59756;SDS011;45631;51.962;5.974;2024-01-07T01:20:06;37.72;;;20.50;;
59756;SDS011;45631;51.962;5.974;2024-01-07T01:22:35;36.80;;;19.77;;
59756;SDS011;45631;51.962;5.974;2024-01-07T01:25:04;37.15;;;19.55;;
59756;SDS011;45631;51.962;5.974;2024-01-07T01:27:33;34.83;;;19.42;;
59756;SDS011;45631;51.962;5.974;2024-01-07T01:30:04;34.15;;;19.85;;
59756;SDS011;45631;51.962;5.974;2024-01-07T01:32:33;34.50;;;19.33;;
59756;SDS011;45631;51.962;5.974;2024-01-07T01:35:01;35.30;;;19.23;;
59756;SDS011;45631;51.962;5.974;2024-01-07T01:37:30;34.40;;;18.42;;
59756;SDS011;45631;51.962;5.974;2024-01-07T01:39:59;37.35;;;19.63;;
59756;SDS011;45631;51.962;5.974;2024-01-07T01:42:27;30.55;;;17.38;;
59756;SDS011;45631;51.962;5.974;2024-01-07T01:44:55;34.92;;;19.15;;
59756;SDS011;45631;51.962;5.974;2024-01-07T01:47:26;35.88;;;19.83;;
59756;SDS011;45631;51.962;5.974;2024-01-07T01:49:54;36.58;;;20.13;;
59756;SDS011;45631;51.962;5.974;2024-01-07T01:52:22;32.05;;;18.08;;
59756;SDS011;45631;51.962;5.974;2024-01-07T01:54:53;38.22;;;19.50;;
59756;SDS011;45631;51.962;5.974;2024-01-07T01:57:22;38.42;;;19.98;;
59756;SDS011;45631;51.962;5.974;2024-01-07T01:59:56;39.95;;;20.40;;
59756;SDS011;45631;51.962;5.974;2024-01-07T02:02:29;44.38;;;20.52;;
59756;SDS011;45631;51.962;5.974;2024-01-07T02:05:00;41.92;;;20.13;;
59756;SDS011;45631;51.962;5.974;2024-01-07T02:07:29;40.13;;;20.05;;
59756;SDS011;45631;51.962;5.974;2024-01-07T02:10:00;40.90;;;21.25;;
59756;SDS011;45631;51.962;5.974;2024-01-07T02:12:28;40.92;;;20.33;;
59756;SDS011;45631;51.962;5.974;2024-01-07T02:14:56;39.80;;;20.30;;
59756;SDS011;45631;51.962;5.974;2024-01-07T02:17:24;41.97;;;20.98;;
59756;SDS011;45631;51.962;5.974;2024-01-07T02:19:53;46.53;;;23.50;;
59756;SDS011;45631;51.962;5.974;2024-01-07T02:22:21;39.33;;;20.73;;
59756;SDS011;45631;51.962;5.974;2024-01-07T02:24:53;42.78;;;22.80;;
59756;SDS011;45631;51.962;5.974;2024-01-07T02:27:21;44.78;;;21.35;;
59756;SDS011;45631;51.962;5.974;2024-01-07T02:29:50;41.72;;;20.30;;
59756;SDS011;45631;51.962;5.974;2024-01-07T02:32:20;38.20;;;19.55;;
59756;SDS011;45631;51.962;5.974;2024-01-07T02:34:48;38.70;;;19.33;;
59756;SDS011;45631;51.962;5.974;2024-01-07T02:37:17;35.22;;;18.95;;
59756;SDS011;45631;51.962;5.974;2024-01-07T02:39:45;33.53;;;18.08;;
59756;SDS011;45631;51.962;5.974;2024-01-07T02:42:27;39.08;;;19.83;;
59756;SDS011;45631;51.962;5.974;2024-01-07T02:44:58;39.22;;;19.05;;
59756;SDS011;45631;51.962;5.974;2024-01-07T02:47:26;34.75;;;18.30;;
59756;SDS011;45631;51.962;5.974;2024-01-07T02:49:57;36.38;;;18.75;;
59756;SDS011;45631;51.962;5.974;2024-01-07T02:52:25;34.20;;;18.58;;
59756;SDS011;45631;51.962;5.974;2024-01-07T02:54:53;31.02;;;17.65;;
59756;SDS011;45631;51.962;5.974;2024-01-07T02:57:21;29.80;;;16.40;;
59756;SDS011;45631;51.962;5.974;2024-01-07T02:59:51;27.70;;;15.07;;
59756;SDS011;45631;51.962;5.974;2024-01-07T03:02:19;30.67;;;16.23;;
59756;SDS011;45631;51.962;5.974;2024-01-07T03:04:48;27.15;;;15.20;;
59756;SDS011;45631;51.962;5.974;2024-01-07T03:07:16;30.20;;;15.65;;
59756;SDS011;45631;51.962;5.974;2024-01-07T03:09:45;28.80;;;16.15;;
59756;SDS011;45631;51.962;5.974;2024-01-07T03:12:14;26.98;;;15.95;;
59756;SDS011;45631;51.962;5.974;2024-01-07T03:14:43;24.58;;;14.80;;
59756;SDS011;45631;51.962;5.974;2024-01-07T03:17:12;24.05;;;14.38;;
59756;SDS011;45631;51.962;5.974;2024-01-07T03:19:41;24.80;;;14.00;;
59756;SDS011;45631;51.962;5.974;2024-01-07T03:22:10;22.50;;;13.48;;
59756;SDS011;45631;51.962;5.974;2024-01-07T03:24:38;21.88;;;12.45;;
59756;SDS011;45631;51.962;5.974;2024-01-07T03:27:06;22.15;;;12.02;;
59756;SDS011;45631;51.962;5.974;2024-01-07T03:29:34;23.80;;;13.07;;
59756;SDS011;45631;51.962;5.974;2024-01-07T03:32:03;23.50;;;12.88;;
59756;SDS011;45631;51.962;5.974;2024-01-07T03:34:33;22.92;;;13.63;;
59756;SDS011;45631;51.962;5.974;2024-01-07T03:37:01;21.60;;;13.20;;
59756;SDS011;45631;51.962;5.974;2024-01-07T03:39:32;24.02;;;13.77;;
59756;SDS011;45631;51.962;5.974;2024-01-07T03:42:00;22.20;;;14.25;;
59756;SDS011;45631;51.962;5.974;2024-01-07T03:44:31;24.80;;;14.10;;
59756;SDS011;45631;51.962;5.974;2024-01-07T03:46:59;22.38;;;13.48;;
59756;SDS011;45631;51.962;5.974;2024-01-07T03:49:27;22.38;;;14.35;;
59756;SDS011;45631;51.962;5.974;2024-01-07T03:51:57;23.17;;;13.52;;
59756;SDS011;45631;51.962;5.974;2024-01-07T03:54:25;23.02;;;14.50;;
59756;SDS011;45631;51.962;5.974;2024-01-07T03:56:57;22.38;;;13.65;;
59756;SDS011;45631;51.962;5.974;2024-01-07T03:59:25;21.92;;;13.65;;
59756;SDS011;45631;51.962;5.974;2024-01-07T04:01:53;24.10;;;14.45;;
59756;SDS011;45631;51.962;5.974;2024-01-07T04:04:23;23.25;;;15.15;;
59756;SDS011;45631;51.962;5.974;2024-01-07T04:06:51;24.33;;;14.35;;
59756;SDS011;45631;51.962;5.974;2024-01-07T04:09:21;25.80;;;14.70;;
59756;SDS011;45631;51.962;5.974;2024-01-07T04:11:49;23.08;;;14.00;;
59756;SDS011;45631;51.962;5.974;2024-01-07T04:14:17;23.48;;;14.32;;
59756;SDS011;45631;51.962;5.974;2024-01-07T04:16:45;22.85;;;14.50;;
59756;SDS011;45631;51.962;5.974;2024-01-07T04:19:14;23.23;;;14.13;;
59756;SDS011;45631;51.962;5.974;2024-01-07T04:21:45;22.98;;;14.75;;
59756;SDS011;45631;51.962;5.974;2024-01-07T04:24:14;24.45;;;14.85;;
59756;SDS011;45631;51.962;5.974;2024-01-07T04:26:43;24.70;;;15.30;;
59756;SDS011;45631;51.962;5.974;2024-01-07T04:29:11;22.13;;;13.90;;
59756;SDS011;45631;51.962;5.974;2024-01-07T04:31:40;26.25;;;15.50;;
59756;SDS011;45631;51.962;5.974;2024-01-07T04:34:08;23.00;;;14.02;;
59756;SDS011;45631;51.962;5.974;2024-01-07T04:36:36;26.25;;;15.25;;
59756;SDS011;45631;51.962;5.974;2024-01-07T04:39:04;24.13;;;14.50;;
59756;SDS011;45631;51.962;5.974;2024-01-07T04:41:33;24.80;;;15.93;;
59756;SDS011;45631;51.962;5.974;2024-01-07T04:44:02;26.60;;;15.10;;
59756;SDS011;45631;51.962;5.974;2024-01-07T04:46:33;22.60;;;15.13;;
59756;SDS011;45631;51.962;5.974;2024-01-07T04:49:01;24.00;;;15.48;;
59756;SDS011;45631;51.962;5.974;2024-01-07T04:51:30;23.25;;;14.73;;
59756;SDS011;45631;51.962;5.974;2024-01-07T04:53:58;24.02;;;14.65;;
59756;SDS011;45631;51.962;5.974;2024-01-07T04:56:26;21.60;;;14.02;;
59756;SDS011;45631;51.962;5.974;2024-01-07T04:58:54;24.60;;;14.00;;
59756;SDS011;45631;51.962;5.974;2024-01-07T05:01:23;21.25;;;14.00;;
59756;SDS011;45631;51.962;5.974;2024-01-07T05:03:51;22.77;;;14.35;;
59756;SDS011;45631;51.962;5.974;2024-01-07T05:06:20;25.73;;;14.75;;
59756;SDS011;45631;51.962;5.974;2024-01-07T05:08:48;25.45;;;15.65;;
59756;SDS011;45631;51.962;5.974;2024-01-07T05:11:16;25.15;;;15.32;;
59756;SDS011;45631;51.962;5.974;2024-01-07T05:13:44;25.52;;;14.90;;
59756;SDS011;45631;51.962;5.974;2024-01-07T05:16:18;20.63;;;13.77;;
59756;SDS011;45631;51.962;5.974;2024-01-07T05:18:48;23.70;;;15.15;;
59756;SDS011;45631;51.962;5.974;2024-01-07T05:21:18;24.42;;;14.50;;
59756;SDS011;45631;51.962;5.974;2024-01-07T05:23:46;21.08;;;13.68;;
59756;SDS011;45631;51.962;5.974;2024-01-07T05:26:14;23.92;;;14.13;;
59756;SDS011;45631;51.962;5.974;2024-01-07T05:28:43;23.77;;;15.05;;
59756;SDS011;45631;51.962;5.974;2024-01-07T05:31:14;25.13;;;15.80;;
59756;SDS011;45631;51.962;5.974;2024-01-07T05:33:42;22.35;;;14.07;;
59756;SDS011;45631;51.962;5.974;2024-01-07T05:36:13;21.00;;;13.32;;
59756;SDS011;45631;51.962;5.974;2024-01-07T05:38:41;18.45;;;12.65;;
59756;SDS011;45631;51.962;5.974;2024-01-07T05:41:10;21.52;;;13.60;;
59756;SDS011;45631;51.962;5.974;2024-01-07T05:43:38;21.58;;;12.68;;
59756;SDS011;45631;51.962;5.974;2024-01-07T05:46:06;17.98;;;11.45;;
59756;SDS011;45631;51.962;5.974;2024-01-07T05:48:40;20.38;;;11.90;;
59756;SDS011;45631;51.962;5.974;2024-01-07T05:51:10;16.17;;;9.98;;
59756;SDS011;45631;51.962;5.974;2024-01-07T05:53:39;16.60;;;10.48;;
59756;SDS011;45631;51.962;5.974;2024-01-07T05:56:10;16.02;;;11.13;;
59756;SDS011;45631;51.962;5.974;2024-01-07T05:58:38;17.15;;;9.60;;
59756;SDS011;45631;51.962;5.974;2024-01-07T06:01:06;16.98;;;10.85;;
59756;SDS011;45631;51.962;5.974;2024-01-07T06:03:36;18.60;;;12.05;;
59756;SDS011;45631;51.962;5.974;2024-01-07T06:06:04;19.10;;;12.40;;
59756;SDS011;45631;51.962;5.974;2024-01-07T06:08:32;18.27;;;12.05;;
59756;SDS011;45631;51.962;5.974;2024-01-07T06:11:02;17.33;;;11.65;;
59756;SDS011;45631;51.962;5.974;2024-01-07T06:13:30;19.10;;;12.30;;
59756;SDS011;45631;51.962;5.974;2024-01-07T06:15:58;18.60;;;11.30;;
59756;SDS011;45631;51.962;5.974;2024-01-07T06:18:27;18.13;;;11.98;;
59756;SDS011;45631;51.962;5.974;2024-01-07T06:20:55;17.10;;;11.20;;
59756;SDS011;45631;51.962;5.974;2024-01-07T06:23:23;16.70;;;10.05;;
59756;SDS011;45631;51.962;5.974;2024-01-07T06:25:51;17.25;;;10.52;;
59756;SDS011;45631;51.962;5.974;2024-01-07T06:28:21;15.98;;;10.15;;
59756;SDS011;45631;51.962;5.974;2024-01-07T06:30:49;17.95;;;11.02;;
59756;SDS011;45631;51.962;5.974;2024-01-07T06:33:17;16.80;;;11.23;;
59756;SDS011;45631;51.962;5.974;2024-01-07T06:35:47;17.88;;;11.75;;
59756;SDS011;45631;51.962;5.974;2024-01-07T06:38:15;21.17;;;12.48;;
59756;SDS011;45631;51.962;5.974;2024-01-07T06:40:43;17.67;;;10.27;;
59756;SDS011;45631;51.962;5.974;2024-01-07T06:43:11;16.30;;;9.93;;
59756;SDS011;45631;51.962;5.974;2024-01-07T06:45:41;17.58;;;10.93;;
59756;SDS011;45631;51.962;5.974;2024-01-07T06:48:10;16.42;;;10.30;;
59756;SDS011;45631;51.962;5.974;2024-01-07T06:50:38;18.00;;;10.98;;
59756;SDS011;45631;51.962;5.974;2024-01-07T06:53:06;15.48;;;10.18;;
59756;SDS011;45631;51.962;5.974;2024-01-07T06:55:35;15.10;;;9.98;;
59756;SDS011;45631;51.962;5.974;2024-01-07T06:58:03;15.23;;;10.02;;
59756;SDS011;45631;51.962;5.974;2024-01-07T07:00:31;18.55;;;11.02;;
59756;SDS011;45631;51.962;5.974;2024-01-07T07:03:01;18.75;;;10.95;;
59756;SDS011;45631;51.962;5.974;2024-01-07T07:05:30;16.73;;;10.55;;
59756;SDS011;45631;51.962;5.974;2024-01-07T07:08:01;18.58;;;11.35;;
59756;SDS011;45631;51.962;5.974;2024-01-07T07:10:29;20.20;;;12.23;;
59756;SDS011;45631;51.962;5.974;2024-01-07T07:12:58;16.75;;;10.68;;
59756;SDS011;45631;51.962;5.974;2024-01-07T07:15:26;16.98;;;10.68;;
59756;SDS011;45631;51.962;5.974;2024-01-07T07:17:57;16.70;;;11.25;;
59756;SDS011;45631;51.962;5.974;2024-01-07T07:20:27;17.95;;;10.88;;
59756;SDS011;45631;51.962;5.974;2024-01-07T07:22:55;16.65;;;11.13;;
59756;SDS011;45631;51.962;5.974;2024-01-07T07:25:23;17.75;;;10.38;;
59756;SDS011;45631;51.962;5.974;2024-01-07T07:27:51;15.40;;;10.60;;
59756;SDS011;45631;51.962;5.974;2024-01-07T07:30:22;16.13;;;9.85;;
59756;SDS011;45631;51.962;5.974;2024-01-07T07:32:50;15.60;;;10.35;;
59756;SDS011;45631;51.962;5.974;2024-01-07T07:35:19;15.80;;;9.50;;
59756;SDS011;45631;51.962;5.974;2024-01-07T07:37:49;15.20;;;9.70;;
59756;SDS011;45631;51.962;5.974;2024-01-07T07:40:17;14.07;;;9.23;;
59756;SDS011;45631;51.962;5.974;2024-01-07T07:42:45;13.88;;;8.93;;
59756;SDS011;45631;51.962;5.974;2024-01-07T07:45:14;13.60;;;8.98;;
59756;SDS011;45631;51.962;5.974;2024-01-07T07:47:44;14.70;;;9.38;;
59756;SDS011;45631;51.962;5.974;2024-01-07T07:50:12;15.32;;;10.02;;
59756;SDS011;45631;51.962;5.974;2024-01-07T07:52:41;13.68;;;9.77;;
59756;SDS011;45631;51.962;5.974;2024-01-07T07:55:11;15.57;;;10.15;;
59756;SDS011;45631;51.962;5.974;2024-01-07T07:57:39;19.10;;;10.65;;
59756;SDS011;45631;51.962;5.974;2024-01-07T08:00:08;15.13;;;10.20;;
59756;SDS011;45631;51.962;5.974;2024-01-07T08:02:39;15.20;;;9.57;;
59756;SDS011;45631;51.962;5.974;2024-01-07T08:05:07;14.40;;;9.75;;
59756;SDS011;45631;51.962;5.974;2024-01-07T08:07:36;13.25;;;9.23;;
59756;SDS011;45631;51.962;5.974;2024-01-07T08:10:04;14.35;;;9.18;;
59756;SDS011;45631;51.962;5.974;2024-01-07T08:12:36;14.32;;;9.50;;
59756;SDS011;45631;51.962;5.974;2024-01-07T08:15:04;15.55;;;9.40;;
59756;SDS011;45631;51.962;5.974;2024-01-07T08:17:33;14.30;;;9.95;;
59756;SDS011;45631;51.962;5.974;2024-01-07T08:20:02;12.82;;;9.02;;
59756;SDS011;45631;51.962;5.974;2024-01-07T08:22:30;15.52;;;10.68;;
59756;SDS011;45631;51.962;5.974;2024-01-07T08:24:59;14.32;;;9.63;;
59756;SDS011;45631;51.962;5.974;2024-01-07T08:27:27;14.27;;;9.68;;
59756;SDS011;45631;51.962;5.974;2024-01-07T08:29:57;13.48;;;9.23;;
59756;SDS011;45631;51.962;5.974;2024-01-07T08:32:25;15.30;;;9.57;;
59756;SDS011;45631;51.962;5.974;2024-01-07T08:34:53;13.48;;;9.90;;
59756;SDS011;45631;51.962;5.974;2024-01-07T08:37:22;13.30;;;8.98;;
59756;SDS011;45631;51.962;5.974;2024-01-07T08:39:50;14.05;;;8.85;;
59756;SDS011;45631;51.962;5.974;2024-01-07T08:42:18;15.57;;;9.50;;
59756;SDS011;45631;51.962;5.974;2024-01-07T08:44:49;12.98;;;9.15;;
59756;SDS011;45631;51.962;5.974;2024-01-07T08:47:19;12.15;;;8.55;;
59756;SDS011;45631;51.962;5.974;2024-01-07T08:49:47;15.68;;;9.57;;
59756;SDS011;45631;51.962;5.974;2024-01-07T08:52:15;13.77;;;8.73;;
59756;SDS011;45631;51.962;5.974;2024-01-07T08:54:43;14.32;;;8.45;;
59756;SDS011;45631;51.962;5.974;2024-01-07T08:57:11;14.05;;;9.15;;
59756;SDS011;45631;51.962;5.974;2024-01-07T08:59:39;13.10;;;8.20;;
59756;SDS011;45631;51.962;5.974;2024-01-07T09:02:07;13.75;;;9.40;;
59756;SDS011;45631;51.962;5.974;2024-01-07T09:04:37;11.93;;;8.65;;
59756;SDS011;45631;51.962;5.974;2024-01-07T09:07:05;13.10;;;8.30;;
59756;SDS011;45631;51.962;5.974;2024-01-07T09:09:36;13.65;;;9.15;;
59756;SDS011;45631;51.962;5.974;2024-01-07T09:12:05;13.23;;;8.57;;
59756;SDS011;45631;51.962;5.974;2024-01-07T09:14:33;13.15;;;8.20;;
59756;SDS011;45631;51.962;5.974;2024-01-07T09:17:02;13.35;;;9.48;;
59756;SDS011;45631;51.962;5.974;2024-01-07T09:19:30;14.55;;;8.20;;
59756;SDS011;45631;51.962;5.974;2024-01-07T09:22:00;15.80;;;8.75;;
59756;SDS011;45631;51.962;5.974;2024-01-07T09:24:28;13.05;;;8.38;;
59756;SDS011;45631;51.962;5.974;2024-01-07T09:26:57;14.63;;;8.73;;
59756;SDS011;45631;51.962;5.974;2024-01-07T09:29:26;15.00;;;8.43;;
59756;SDS011;45631;51.962;5.974;2024-01-07T09:31:54;12.27;;;7.97;;
59756;SDS011;45631;51.962;5.974;2024-01-07T09:34:22;12.98;;;7.18;;
59756;SDS011;45631;51.962;5.974;2024-01-07T09:36:50;12.68;;;7.85;;
59756;SDS011;45631;51.962;5.974;2024-01-07T09:39:20;13.98;;;7.82;;
59756;SDS011;45631;51.962;5.974;2024-01-07T09:41:48;13.80;;;8.07;;
59756;SDS011;45631;51.962;5.974;2024-01-07T09:44:17;14.50;;;7.53;;
59756;SDS011;45631;51.962;5.974;2024-01-07T09:46:46;12.93;;;7.88;;
59756;SDS011;45631;51.962;5.974;2024-01-07T09:49:18;11.85;;;8.07;;
59756;SDS011;45631;51.962;5.974;2024-01-07T09:51:46;15.68;;;7.88;;
59756;SDS011;45631;51.962;5.974;2024-01-07T09:54:18;15.13;;;8.38;;
59756;SDS011;45631;51.962;5.974;2024-01-07T09:56:50;13.70;;;7.95;;
59756;SDS011;45631;51.962;5.974;2024-01-07T09:59:26;13.10;;;7.85;;
59756;SDS011;45631;51.962;5.974;2024-01-07T10:01:56;12.50;;;7.22;;
59756;SDS011;45631;51.962;5.974;2024-01-07T10:04:25;12.90;;;6.93;;
59756;SDS011;45631;51.962;5.974;2024-01-07T10:06:54;10.90;;;6.35;;
59756;SDS011;45631;51.962;5.974;2024-01-07T10:09:24;12.00;;;6.88;;
59756;SDS011;45631;51.962;5.974;2024-01-07T10:11:55;11.50;;;6.63;;
59756;SDS011;45631;51.962;5.974;2024-01-07T10:14:23;10.90;;;6.40;;
59756;SDS011;45631;51.962;5.974;2024-01-07T10:16:54;10.27;;;5.38;;
59756;SDS011;45631;51.962;5.974;2024-01-07T10:19:22;10.20;;;6.38;;
59756;SDS011;45631;51.962;5.974;2024-01-07T10:22:01;11.73;;;5.80;;
59756;SDS011;45631;51.962;5.974;2024-01-07T10:24:38;9.65;;;6.47;;
59756;SDS011;45631;51.962;5.974;2024-01-07T10:27:08;11.95;;;6.25;;
59756;SDS011;45631;51.962;5.974;2024-01-07T10:29:36;10.85;;;5.57;;
59756;SDS011;45631;51.962;5.974;2024-01-07T10:32:05;12.50;;;6.13;;
59756;SDS011;45631;51.962;5.974;2024-01-07T10:34:34;10.73;;;5.78;;
59756;SDS011;45631;51.962;5.974;2024-01-07T10:37:04;12.93;;;6.28;;
59756;SDS011;45631;51.962;5.974;2024-01-07T10:39:32;9.07;;;4.93;;
59756;SDS011;45631;51.962;5.974;2024-01-07T10:42:02;7.63;;;4.75;;
59756;SDS011;45631;51.962;5.974;2024-01-07T10:44:32;8.75;;;4.90;;
59756;SDS011;45631;51.962;5.974;2024-01-07T10:47:03;8.57;;;4.85;;
59756;SDS011;45631;51.962;5.974;2024-01-07T10:49:34;10.50;;;5.05;;
59756;SDS011;45631;51.962;5.974;2024-01-07T10:52:05;9.02;;;5.03;;
59756;SDS011;45631;51.962;5.974;2024-01-07T10:54:35;8.15;;;4.22;;
59756;SDS011;45631;51.962;5.974;2024-01-07T10:57:07;8.98;;;5.00;;
59756;SDS011;45631;51.962;5.974;2024-01-07T10:59:50;8.13;;;4.65;;
59756;SDS011;45631;51.962;5.974;2024-01-07T11:02:20;8.60;;;5.00;;
59756;SDS011;45631;51.962;5.974;2024-01-07T11:04:51;8.57;;;4.68;;
59756;SDS011;45631;51.962;5.974;2024-01-07T11:07:28;9.93;;;4.70;;
59756;SDS011;45631;51.962;5.974;2024-01-07T11:10:05;8.63;;;4.97;;
59756;SDS011;45631;51.962;5.974;2024-01-07T11:12:42;8.75;;;4.72;;
59756;SDS011;45631;51.962;5.974;2024-01-07T11:15:10;9.40;;;4.53;;
59756;SDS011;45631;51.962;5.974;2024-01-07T11:17:42;8.35;;;4.38;;
59756;SDS011;45631;51.962;5.974;2024-01-07T11:20:13;6.82;;;3.97;;
59756;SDS011;45631;51.962;5.974;2024-01-07T11:22:46;9.43;;;3.65;;
59756;SDS011;45631;51.962;5.974;2024-01-07T11:25:30;7.45;;;3.63;;
59756;SDS011;45631;51.962;5.974;2024-01-07T11:28:01;8.65;;;3.92;;
59756;SDS011;45631;51.962;5.974;2024-01-07T11:30:30;7.13;;;3.22;;
59756;SDS011;45631;51.962;5.974;2024-01-07T11:33:07;8.40;;;3.85;;
59756;SDS011;45631;51.962;5.974;2024-01-07T11:35:55;7.30;;;3.22;;
59756;SDS011;45631;51.962;5.974;2024-01-07T11:38:24;5.90;;;3.17;;
59756;SDS011;45631;51.962;5.974;2024-01-07T11:40:53;6.22;;;2.92;;
59756;SDS011;45631;51.962;5.974;2024-01-07T11:43:24;7.75;;;3.70;;
59756;SDS011;45631;51.962;5.974;2024-01-07T11:45:55;7.72;;;3.40;;
59756;SDS011;45631;51.962;5.974;2024-01-07T11:48:23;6.78;;;2.60;;
59756;SDS011;45631;51.962;5.974;2024-01-07T11:50:52;6.18;;;2.40;;
59756;SDS011;45631;51.962;5.974;2024-01-07T11:53:22;6.07;;;2.90;;
59756;SDS011;45631;51.962;5.974;2024-01-07T11:55:50;5.78;;;2.45;;
59756;SDS011;45631;51.962;5.974;2024-01-07T11:58:19;4.90;;;2.15;;
59756;SDS011;45631;51.962;5.974;2024-01-07T12:00:48;4.72;;;2.20;;
59756;SDS011;45631;51.962;5.974;2024-01-07T12:03:17;3.63;;;2.05;;
59756;SDS011;45631;51.962;5.974;2024-01-07T12:05:45;4.85;;;2.20;;
59756;SDS011;45631;51.962;5.974;2024-01-07T12:08:14;5.82;;;2.63;;
59756;SDS011;45631;51.962;5.974;2024-01-07T12:10:45;5.20;;;2.55;;
59756;SDS011;45631;51.962;5.974;2024-01-07T12:13:13;5.88;;;2.45;;
59756;SDS011;45631;51.962;5.974;2024-01-07T12:15:42;4.20;;;2.10;;
59756;SDS011;45631;51.962;5.974;2024-01-07T12:18:12;5.47;;;2.15;;
59756;SDS011;45631;51.962;5.974;2024-01-07T12:20:41;5.45;;;2.67;;
59756;SDS011;45631;51.962;5.974;2024-01-07T12:23:09;3.97;;;2.17;;
59756;SDS011;45631;51.962;5.974;2024-01-07T12:25:38;4.25;;;1.92;;
59756;SDS011;45631;51.962;5.974;2024-01-07T12:28:06;4.95;;;2.25;;
59756;SDS011;45631;51.962;5.974;2024-01-07T12:30:36;4.38;;;2.17;;
59756;SDS011;45631;51.962;5.974;2024-01-07T12:33:05;5.20;;;2.03;;
59756;SDS011;45631;51.962;5.974;2024-01-07T12:35:35;4.03;;;2.30;;
59756;SDS011;45631;51.962;5.974;2024-01-07T12:38:04;5.30;;;2.15;;
59756;SDS011;45631;51.962;5.974;2024-01-07T12:40:32;3.90;;;1.83;;
59756;SDS011;45631;51.962;5.974;2024-01-07T12:43:01;4.00;;;1.95;;
59756;SDS011;45631;51.962;5.974;2024-01-07T12:45:30;5.00;;;1.95;;
59756;SDS011;45631;51.962;5.974;2024-01-07T12:47:59;4.80;;;1.98;;
59756;SDS011;45631;51.962;5.974;2024-01-07T12:50:29;6.47;;;2.17;;
59756;SDS011;45631;51.962;5.974;2024-01-07T12:52:59;4.68;;;2.33;;
59756;SDS011;45631;51.962;5.974;2024-01-07T12:55:28;4.03;;;1.98;;
59756;SDS011;45631;51.962;5.974;2024-01-07T12:57:56;4.88;;;2.55;;
59756;SDS011;45631;51.962;5.974;2024-01-07T13:00:25;4.45;;;1.98;;
59756;SDS011;45631;51.962;5.974;2024-01-07T13:02:55;4.07;;;2.00;;
59756;SDS011;45631;51.962;5.974;2024-01-07T13:05:27;3.90;;;1.80;;
59756;SDS011;45631;51.962;5.974;2024-01-07T13:07:55;5.38;;;1.95;;
59756;SDS011;45631;51.962;5.974;2024-01-07T13:10:25;5.32;;;2.10;;
59756;SDS011;45631;51.962;5.974;2024-01-07T13:12:54;3.75;;;2.00;;
59756;SDS011;45631;51.962;5.974;2024-01-07T13:15:33;3.47;;;1.73;;
59756;SDS011;45631;51.962;5.974;2024-01-07T13:18:01;3.45;;;1.90;;
59756;SDS011;45631;51.962;5.974;2024-01-07T13:20:30;5.60;;;1.90;;
59756;SDS011;45631;51.962;5.974;2024-01-07T13:22:58;3.53;;;1.90;;
59756;SDS011;45631;51.962;5.974;2024-01-07T13:25:28;5.70;;;2.03;;
59756;SDS011;45631;51.962;5.974;2024-01-07T13:27:56;4.18;;;1.90;;
59756;SDS011;45631;51.962;5.974;2024-01-07T13:30:26;4.75;;;1.88;;
59756;SDS011;45631;51.962;5.974;2024-01-07T13:32:54;3.92;;;1.70;;
59756;SDS011;45631;51.962;5.974;2024-01-07T13:35:24;4.13;;;1.77;;
59756;SDS011;45631;51.962;5.974;2024-01-07T13:37:53;4.28;;;1.73;;
59756;SDS011;45631;51.962;5.974;2024-01-07T13:40:21;4.85;;;1.75;;
59756;SDS011;45631;51.962;5.974;2024-01-07T13:42:50;4.00;;;1.95;;
59756;SDS011;45631;51.962;5.974;2024-01-07T13:45:20;3.75;;;1.58;;
59756;SDS011;45631;51.962;5.974;2024-01-07T13:47:49;4.43;;;2.35;;
59756;SDS011;45631;51.962;5.974;2024-01-07T13:50:18;3.83;;;2.00;;
59756;SDS011;45631;51.962;5.974;2024-01-07T13:52:46;6.25;;;1.70;;
59756;SDS011;45631;51.962;5.974;2024-01-07T13:55:14;5.82;;;2.05;;
59756;SDS011;45631;51.962;5.974;2024-01-07T13:57:43;3.95;;;1.73;;
59756;SDS011;45631;51.962;5.974;2024-01-07T14:00:13;4.38;;;2.00;;
59756;SDS011;45631;51.962;5.974;2024-01-07T14:02:45;3.92;;;1.60;;
59756;SDS011;45631;51.962;5.974;2024-01-07T14:05:14;5.30;;;2.20;;
59756;SDS011;45631;51.962;5.974;2024-01-07T14:07:45;4.55;;;1.90;;
59756;SDS011;45631;51.962;5.974;2024-01-07T14:10:13;7.28;;;2.15;;
59756;SDS011;45631;51.962;5.974;2024-01-07T14:12:45;2.83;;;1.80;;
59756;SDS011;45631;51.962;5.974;2024-01-07T14:15:15;2.88;;;1.50;;
59756;SDS011;45631;51.962;5.974;2024-01-07T14:17:45;2.92;;;1.50;;
59756;SDS011;45631;51.962;5.974;2024-01-07T14:20:13;3.17;;;1.83;;
59756;SDS011;45631;51.962;5.974;2024-01-07T14:22:41;3.17;;;1.70;;
59756;SDS011;45631;51.962;5.974;2024-01-07T14:25:09;3.95;;;1.55;;
59756;SDS011;45631;51.962;5.974;2024-01-07T14:27:38;4.53;;;1.67;;
59756;SDS011;45631;51.962;5.974;2024-01-07T14:30:06;3.15;;;1.40;;
59756;SDS011;45631;51.962;5.974;2024-01-07T14:32:36;3.83;;;1.45;;
59756;SDS011;45631;51.962;5.974;2024-01-07T14:35:05;2.53;;;1.23;;
59756;SDS011;45631;51.962;5.974;2024-01-07T14:37:33;4.07;;;1.73;;
59756;SDS011;45631;51.962;5.974;2024-01-07T14:40:02;5.35;;;1.70;;
59756;SDS011;45631;51.962;5.974;2024-01-07T14:42:32;3.40;;;1.67;;